Antelope Valley, Nevada Weather observations

Data are for 10 minute period ending at time listed.
 Day   Time   Solar   Ave.   Ave.  Ave.  Vector  Max.   Baro.   Total    
  of    of     Rad.   Air    Rel.  Wind   Wind   Wind  Press.  Precip.   
Year   Day            Temp.  Hum.  Speed  Dir.   Gust                    
2015   (PST)  Kw/m2    F      %     mph   deg.    mph    mb.     in.     
-------------------------------------------------------------------------
 241   18:30   0.01   76.0    31   11.5   281    18.1   848.2    0.00 
 241   18:40   0.00   75.7    31   12.7   279    20.0   848.3    0.00 
 241   18:50   0.00   74.8    32   10.7   263    18.3   848.4    0.00 
 241   19:00   0.00   72.8    36    9.1   261    12.9   848.5    0.00 
 241   19:10   0.00   73.2    35    9.3   262    13.7   848.7    0.00 
 241   19:20   0.00   72.7    35    7.0   272    12.3   848.9    0.00 
 241   19:30   0.00   72.2    36    5.3   272     8.6   849.2    0.00 
 241   19:40   0.00   70.1    42    2.6   202     4.9   849.4    0.00 
 241   19:50   0.00   68.9    43    2.7   200     4.3   849.6    0.00 
 241   20:00   0.00   67.0    49    4.1   191     5.3   849.9    0.00 
 241   20:10   0.00   63.6    58    4.0   186     5.3   850.2    0.00 
 241   20:20   0.00   65.1    50    2.5   149     4.8   850.4    0.00 
 241   20:30   0.00   64.7    51    2.6   136     4.8   850.6    0.00 
 241   20:40   0.00   63.7    54    4.2   147     6.1   850.6    0.00 
 241   20:50   0.00   62.0    59    1.9   189     4.2   850.7    0.00 
 241   21:00   0.00   62.8    55    3.1   174     4.3   850.8    0.00 
 241   21:10   0.00   62.6    53    2.3   144     3.5   850.9    0.00 
 241   21:20   0.00   63.5    50    2.6   128     3.8   850.9    0.00 
 241   21:30   0.00   63.5    49    3.0   104     5.1   850.9    0.00 
 241   21:40   0.00   63.5    48    2.7   120     5.7   850.9    0.00 
 241   21:50   0.00   64.0    49    4.2   161     5.8   851.0    0.00 
 241   22:00   0.00   62.8    51    5.4   174     7.1   851.1    0.00 
 241   22:10   0.00   62.3    51    5.3   168     6.9   851.2    0.00 
 241   22:20   0.00   63.0    50    5.1   162     6.4   851.2    0.00 
 241   22:30   0.00   64.9    44    3.6   148     5.0   851.3    0.00 
 241   22:40   0.00   64.2    46    5.4   152     7.4   851.3    0.00 
 241   22:50   0.00   64.9    45    4.8   142     6.8   851.3    0.00 
 241   23:00   0.00   64.6    45    3.8   155     5.6   851.3    0.00 
 241   23:10   0.00   65.3    42    2.0   199     4.2   851.4    0.00 
 241   23:20   0.00   62.9    50    3.3   242     6.1   851.4    0.00 
 241   23:30   0.00   60.7    54    5.7   252     6.9   851.4    0.00 
 241   23:40   0.00   60.6    53    4.9   256     6.2   851.4    0.00 
 241   23:50   0.00   59.5    57    4.2   202     5.4   851.5    0.00 
 242    0:00   0.00   60.0    53    5.6   187     8.0   851.5    0.00 
 242    0:10   0.00   59.2    57    3.4   194     5.3   851.4    0.00 
 242    0:20   0.00   58.1    59    4.6   177     5.8   851.4    0.00 
 242    0:30   0.00   58.4    58    3.1   170     4.5   851.4    0.00 
 242    0:40   0.00   57.1    56    0.5   105     2.2   851.6    0.00 
 242    0:50   0.00   56.9    58    0.9   311     3.5   851.6    0.00 
 242    1:00   0.00   58.4    53    1.9   170     5.4   851.5    0.00 
 242    1:10   0.00   57.9    58    3.8   154     5.0   851.4    0.00 
 242    1:20   0.00   57.2    57    2.1   143     4.6   851.4    0.00 
 242    1:30   0.00   57.3    57    4.3   156     5.7   851.4    0.00 
 242    1:40   0.00   56.3    59    4.9   154     6.6   851.4    0.00 
 242    1:50   0.00   55.3    62    4.0   163     6.1   851.5    0.00 
 242    2:00   0.00   52.7    70    1.3   295     5.3   851.6    0.00 
 242    2:10   0.00   53.2    69    2.1   238     3.0   851.6    0.00 
 242    2:20   0.00   53.4    67    3.1   229     4.5   851.6    0.00 
 242    2:30   0.00   51.3    74    2.5   237     4.7   851.7    0.00 
 242    2:40   0.00   50.1    78    2.2   195     3.4   851.7    0.00 
 242    2:50   0.00   49.5    79    4.3   159     5.1   851.6    0.00 
 242    3:00   0.00   50.5    75    3.6   168     5.6   851.6    0.00 
 242    3:10   0.00   51.0    73    2.4   166     4.0   851.6    0.00 
 242    3:20   0.00   52.1    69    3.6   180     5.1   851.6    0.00 
 242    3:30   0.00   51.0    73    3.6   192     5.2   851.6    0.00 
 242    3:40   0.00   50.3    76    1.6   192     3.1   851.8    0.00 
 242    3:50   0.00   49.4    77    0.9   272     2.9   851.8    0.00 
 242    4:00   0.00   47.8    79    0.7   307     2.8   851.8    0.00 
 242    4:10   0.00   48.1    81    1.3   260     2.5   851.8    0.00 
 242    4:20   0.00   47.7    81    2.3   194     2.8   851.8    0.00 
 242    4:30   0.00   47.3    81    1.2   191     1.8   851.8    0.00 
 242    4:40   0.00   48.1    76    0.5   191     1.8   851.8    0.00 
 242    4:50   0.00   49.1    71    1.4   202     2.3   851.9    0.00 
 242    5:00   0.00   47.7    77    2.0   229     3.0   852.0    0.00 
 242    5:10   0.00   46.3    81    2.8   200     3.3   851.9    0.00 
 242    5:20   0.00   45.7    82    2.7   187     3.1   852.0    0.00 
 242    5:30   0.01   45.3    83    1.6   244     2.8   852.1    0.00 
 242    5:40   0.01   44.6    84    2.0   281     3.4   852.2    0.00 
 242    5:50   0.04   45.5    82    1.2   283     3.2   852.4    0.00 
 242    6:00   0.09   46.4    81    2.3   161     3.4   852.5    0.00 
 242    6:10   0.11   47.6    80    3.0   165     4.2   852.6    0.00 
 242    6:20   0.14   49.4    76    2.6   146     3.9   852.7    0.00 
 242    6:30   0.17   51.4    74    2.4   140     3.3   852.8    0.00 
 242    6:40   0.20   53.3    72    3.5   144     5.1   852.8    0.00 
 242    6:50   0.23   55.9    70    3.2   170     4.5   852.8    0.00 
 242    7:00   0.26   58.0    64    3.1   177     4.2   853.0    0.00 
 242    7:10   0.29   59.1    65    3.0   199     4.4   853.0    0.00 
 242    7:20   0.33   59.0    67    3.7   226     5.0   853.1    0.00 
 242    7:30   0.36   60.0    66    3.5   221     4.9   853.1    0.00 
 242    7:40   0.39   61.5    62    3.8   219     5.0   853.1    0.00 
 242    7:50   0.42   63.0    62    3.2   215     4.3   853.0    0.00 
 242    8:00   0.45   64.2    57    3.5   219     4.6   853.0    0.00 
 242    8:10   0.49   65.7    55    3.6   209     4.8   853.0    0.00 
 242    8:20   0.52   66.3    54    4.3   214     6.4   852.9    0.00 
 242    8:30   0.55   67.2    53    5.1   209     6.9   852.9    0.00 
 242    8:40   0.58   68.3    49    4.3   215     5.9   852.8    0.00 
 242    8:50   0.61   69.0    46    4.0   224     6.1   852.8    0.00 
 242    9:00   0.64   69.3    43    3.6   226     5.7   852.8    0.00 
 242    9:10   0.70   70.7    41    3.4   210     6.3   852.8    0.00 
 242    9:20   0.77   70.6    43    5.2   240     9.1   852.7    0.00 
 242    9:30   0.79   70.5    42    5.1   251     9.3   852.6    0.00 
 242    9:40   0.84   71.2    42    5.5   234     8.3   852.6    0.00 
 242    9:50   0.91   72.7    37    5.9   217    12.1   852.5    0.00 
 242   10:00   0.73   71.4    37    8.8   258    14.2   852.5    0.00 
 242   10:10   0.57   71.3    41    5.6   245    10.4   852.5    0.00 
 242   10:20   0.84   71.4    41    9.0   242    15.3   852.4    0.00 
 242   10:30   0.74   71.7    41    7.7   243    13.5   852.3    0.00 
 242   10:40   0.83   72.5    40    7.0   258    11.5   852.2    0.00 
 242   10:50   0.95   73.4    37    7.3   231    17.0   852.1    0.00 
 242   11:00   0.89   72.6    40   10.4   231    16.9   852.0    0.00 
 242   11:10   0.79   72.6    40    8.5   215    14.7   851.8    0.00 
 242   11:20   0.68   72.2    39    9.3   220    15.5   851.7    0.00 
 242   11:30   0.83   73.0    38    7.2   259    14.4   851.7    0.00 
 242   11:40   0.78   74.6    31    7.7   274    17.1   851.7    0.00 
 242   11:50   0.78   73.7    32    8.7   274    14.2   851.6    0.00 
 242   12:00   0.92   73.8    32    9.3   264    13.2   851.7    0.00 
 242   12:10   0.92   74.3    31    8.5   257    16.1   851.6    0.00 
 242   12:20   0.96   74.6    31    8.6   258    17.0   851.6    0.00 
 242   12:30   0.83   74.8    29    7.9   253    17.3   851.5    0.00 
 242   12:40   0.58   73.6    28    7.9   251    16.4   851.4    0.00 
 242   12:50   0.65   73.5    31    6.1   246     9.9   851.4    0.00 
 242   13:00   0.63   74.5    30    6.9   261    12.9   851.4    0.00 
 242   13:10   0.69   75.3    26    7.9   293    17.8   851.4    0.00 
 242   13:20   0.67   77.7    24    6.0   293    12.3   851.2    0.00 
 242   13:30   0.54   74.3    32    5.9   249    14.0   851.2    0.00 
 242   13:40   0.76   75.5    32    4.9   258    13.8   851.1    0.00 
 242   13:50   0.72   75.7    32    6.6   255    16.7   851.1    0.00 
 242   14:00   0.77   76.0    31    5.5   243     8.8   851.0    0.00 
 242   14:10   0.71   76.7    29    7.4   268    13.9   850.9    0.00 
 242   14:20   0.74   76.2    29    7.0   270    13.4   850.9    0.00 
 242   14:30   0.69   80.0    20    4.9   316     9.9   850.9    0.00 
 242   14:40   0.66   77.2    30    7.2   246    13.4   850.8    0.00 
 242   14:50   0.63   77.4    26    4.7   276     9.2   850.8    0.00 
 242   15:00   0.61   76.5    28    8.2   244    11.4   850.8    0.00 
 242   15:10   0.59   76.0    33    5.3   239     9.6   850.7    0.00 
 242   15:20   0.48   75.5    31    7.1   248    13.6   850.6    0.00 
 242   15:30   0.42   75.4    30    6.5   260    11.2   850.5    0.00 
 242   15:40   0.47   74.7    28    8.1   266    13.4   850.5    0.00 
 242   15:50   0.50   77.0    23    8.7   286    14.2   850.4    0.00 
 242   16:00   0.46   75.4    28    9.0   265    16.0   850.3    0.00 
 242   16:10   0.41   75.1    28    7.3   272    12.6   850.3    0.00 
 242   16:20   0.28   73.8    29    9.3   258    15.3   850.3    0.00 
 242   16:30   0.35   73.2    29    6.9   266    12.6   850.2    0.00 
 242   16:40   0.31   74.5    28    6.4   275     9.6   850.2    0.00 
 242   16:50   0.26   74.7    27    6.4   290    10.8   850.2    0.00 
 242   17:00   0.23   74.5    26    6.7   288    11.8   850.2    0.00 
 242   17:10   0.19   74.4    27    6.0   293    10.2   850.2    0.00 
 242   17:20   0.16   73.4    27    5.8   301     8.6   850.2    0.00 
 242   17:30   0.14   72.2    30    4.3   292     8.5   850.2    0.00 
 242   17:40   0.11   71.0    28    5.1   274     7.5   850.2    0.00 
 242   17:50   0.09   70.0    32    2.4   281     5.5   850.2    0.00 
 242   18:00   0.06   69.6    31    3.6   299     6.2   850.2    0.00 
 242   18:10   0.03   67.4    33    3.5   302     5.1   850.2    0.00 
 242   18:20   0.01   66.2    35    3.9   294     6.2   850.3    0.00 

Return to Antelope Valley graphs page.


Western Regional Climate Center,wrcc@dri.edu